• Join FlightAware (Why Join?)
  • Login
  • US Flag 
12:17AM EST


 

Airport Tracker/Info


-or-


 

Live Flight TrackerFlight Track Log ✈ N379CD ✈ 23-May-2013 ✈ KIKW - KJWN

Flight Track Log - Related Links

Times and Time Zones

All times are in EDT time to prevent confusion due to time zone crossing. See the N379CD flight status page for this flight to view local times or setup timezone preferences in your user account.

Time Position Orientation Groundspeed Altitude Reporting Facility
EDT Latitude Longitude Course Direction KTS MPH feet Rate Location/Type
12:49PM 43.4300 -84.3528 196° South  Level Estimated
12:50PM 43.3832 -84.3699 195° South  Level FlightAware Approximate
12:51PM 43.3364 -84.3869 195° South  Level FlightAware Approximate
12:52PM 43.2896 -84.4040 195° South  Level FlightAware Approximate
12:53PM 43.2427 -84.4210 195° South  Level FlightAware Approximate
12:54PM 43.1959 -84.4380 195° South  Level FlightAware Approximate
12:55PM 43.1491 -84.4549 195° South  Level FlightAware Approximate
12:56PM 43.1025 -84.4730 196° South  Level Estimated
12:57PM 43.0559 -84.4910 196° South  Level FlightAware Approximate
12:58PM 43.0093 -84.5090 196° South  Level FlightAware Approximate
12:59PM 42.9626 -84.5270 196° South  Level FlightAware Approximate
01:00PM 42.9160 -84.5449 196° South  Level FlightAware Approximate
01:01PM 42.8694 -84.5628 196° South  Level FlightAware Approximate
01:02PM 42.8228 -84.5807 196° South  Level FlightAware Approximate
01:02PM 42.7236 -84.6444 196° South 189 217 4,000  Level Chicago Center
01:03PM 42.7761 -84.5985 196° South  Level FlightAware Approximate
01:03PM 42.6614 -84.6636 193° South 193 222 4,000  Level Chicago Center
01:04PM 42.7295 -84.6163 196° South  Level FlightAware Approximate
01:04PM 42.6119 -84.6842 197° South 189 217 4,000  Level Chicago Center
01:05PM 42.6829 -84.6341 196° South  Level FlightAware Approximate
01:05PM 42.5600 -84.7036 195° South 191 220 4,000  Level Chicago Center
01:06PM 42.6362 -84.6519 196° South  Level FlightAware Approximate
01:06PM 42.5083 -84.7239 196° South 192 221 4,000  Level Chicago Center
01:07PM 42.5896 -84.6696 196° South  Level FlightAware Approximate
01:07PM 42.4581 -84.7417 195° South 190 219 4,000  Level Chicago Center
01:08PM 42.5429 -84.6873 196° South  Level FlightAware Approximate
01:08PM 42.4078 -84.7603 195° South 189 217 4,000  Level Chicago Center
01:09PM 42.3483 -84.7819 195° South 187 215 4,000  Level Chicago Center
01:11PM 42.2994 -84.7997 195° South 185 213 4,000  Level Chicago Center
01:12PM 42.2506 -84.8183 196° South 183 211 4,000  Level Chicago Center
01:13PM 42.2025 -84.8358 195° South 181 208 4,000  Level Chicago Center
01:14PM 42.1550 -84.8539 196° South 179 206 4,000  Level Chicago Center
01:15PM 42.1081 -84.8703 195° South 177 204 4,000  Level Chicago Center
01:16PM 42.0522 -84.8914 196° South 175 201 4,000  Level Chicago Center
01:17PM 42.0064 -84.9081 195° South 173 199 4,000  Level Chicago Center
01:18PM 41.9575 -84.9269 196° South 176 203 4,000  Level Chicago Center
01:19PM 41.9089 -84.9436 194° South 179 206 4,000  Level Chicago Center
01:20PM 41.8611 -84.9606 195° South 179 206 4,000  Level Chicago Center
01:21PM 41.8128 -84.9792 196° South 179 206 4,000  Level Chicago Center
01:22PM 41.7561 -84.9994 195° South 178 205 4,000  Level Chicago Center
01:23PM 41.7106 -85.0167 196° South 174 200 4,000  Level Chicago Center
01:24PM 41.6656 -85.0328 195° South 170 196 4,000  Level Chicago Center
01:25PM 41.6219 -85.0486 195° South 166 191 4,000  Level Chicago Center
01:26PM 41.5778 -85.0650 196° South 164 189 4,000  Level Chicago Center
01:27PM 41.5333 -85.0814 195° South 165 190 4,000  Level Chicago Center
01:28PM 41.4792 -85.1000 194° South 166 191 4,000  Level Chicago Center
01:29PM 41.4344 -85.1169 196° South 166 191 4,000  Level Chicago Center
01:30PM 41.3900 -85.1331 195° South 166 191 4,000  Level Chicago Center
01:31PM 41.3453 -85.1492 195° South 166 191 4,000  Level Chicago Center
01:32PM 41.3017 -85.1650 195° South 164 189 4,000  Level Chicago Center
01:33PM 41.2575 -85.1803 195° South 164 189 4,000  Level Chicago Center
01:34PM 41.2089 -85.1978 195° South 164 189 4,000  Level Chicago Center
01:35PM 41.1603 -85.2150 194° South 164 189 4,100  Climbing Chicago Center
01:36PM 41.1547 -85.2160 194° South  Level FlightAware Approximate
01:36PM 41.1156 -85.2322 196° South 165 190 4,000  Level Chicago Center
01:37PM 41.0753 -85.2594 207° Southwest 164 189 4,000  Level Chicago Center
01:40PM 41.0117 -85.3444 225° Southwest 162 186 4,000  Level Chicago Center
01:41PM 40.9794 -85.3847 223° Southwest 161 185 4,000  Level Chicago Center
01:42PM 40.9336 -85.4211 211° Southwest 161 185 4,000  Level Chicago Center
01:43PM 40.8338 -85.3231 194° South  Level FlightAware Approximate
01:43PM 40.8914 -85.4444 203° Southwest 163 188 4,000  Level Chicago Center
01:44PM 40.8481 -85.4697 204° Southwest 166 191 4,000  Level Chicago Center
01:45PM 40.8061 -85.4942 204° Southwest 166 191 4,000  Level Chicago Center
01:46PM 40.7533 -85.5267 205° Southwest 167 192 4,000  Level Chicago Center
01:47PM 40.7133 -85.5481 202° Southwest 166 191 4,000  Level Chicago Center
01:48PM 40.6683 -85.5775 206° Southwest 166 191 4,000  Level Chicago Center
01:49PM 40.6281 -85.6003 203° Southwest 166 191 4,000  Level Chicago Center
01:50PM 40.5836 -85.6256 203° Southwest 166 191 4,000  Level Chicago Center
01:51PM 40.5394 -85.6497 203° Southwest 167 192 4,000  Level Chicago Center
01:52PM 40.4989 -85.6764 207° Southwest 167 192 4,000  Level Chicago Center
01:53PM 40.4519 -85.6919 194° South 168 193 4,000  Level Chicago Center
01:54PM 40.4047 -85.7033 190° South 170 196 4,000  Level Chicago Center
01:55PM 40.3575 -85.7183 194° South 172 198 4,000  Level Chicago Center
01:56PM 40.3114 -85.7311 192° South 171 197 4,000  Level Chicago Center
01:57PM 40.2558 -85.7475 193° South 170 196 4,000  Level Chicago Center
01:58PM 40.2086 -85.7625 194° South 172 198 4,000  Level Chicago Center
01:59PM 40.1631 -85.7758 193° South 171 197 4,000  Level Chicago Center
02:01PM 40.0667 -85.8000 191° South 170 196 4,000  Level Indianapolis TRACON
02:02PM 40.0333 -85.8167 201° Southwest 171 197 4,000  Level Indianapolis TRACON
02:03PM 39.9878 -85.8289 192° South 170 196 4,000  Level Indianapolis Center
02:04PM 39.9422 -85.8425 193° South 169 194 4,000  Level Indianapolis Center
02:05PM 39.8969 -85.8556 192° South 168 193 4,000  Level Indianapolis Center
02:06PM 39.8522 -85.8681 192° South 166 191 4,000  Level Indianapolis Center
02:07PM 39.8086 -85.8869 198° South 165 190 4,000  Level Indianapolis Center
02:08PM 39.7622 -85.9272 214° Southwest 166 191 4,000  Level Indianapolis Center
02:09PM 39.7231 -85.9594 212° Southwest 166 191 4,000  Level Indianapolis Center
02:10PM 39.6836 -85.9917 212° Southwest 166 191 4,000  Level Indianapolis Center
02:11PM 39.6439 -86.0239 212° Southwest 167 192 4,000  Level Indianapolis Center
02:12PM 39.6056 -86.0564 213° Southwest 166 191 4,000  Level Indianapolis Center
02:13PM 39.5683 -86.0914 216° Southwest 165 190 4,000  Level Indianapolis Center
02:14PM 39.5389 -86.1367 230° Southwest 171 197 4,000  Level Indianapolis Center
02:15PM 39.5083 -86.1797 227° Southwest 165 190 4,000  Level Indianapolis Center
02:16PM 39.4775 -86.2236 228° Southwest 164 189 4,000  Level Indianapolis Center
02:17PM 39.4419 -86.2756 228° Southwest 162 186 4,000  Level Indianapolis Center
02:18PM 39.3964 -86.2861 190° South 168 193 4,000  Level Indianapolis Center
02:19PM 39.3489 -86.2967 190° South 169 194 4,000  Level Indianapolis Center
02:20PM 39.3033 -86.3072 190° South 168 193 4,000  Level Indianapolis Center
02:21PM 39.2569 -86.3158 188° South 168 193 4,000  Level Indianapolis Center
02:23PM 39.2111 -86.3233 187° South 167 192 4,000  Level Indianapolis Center
02:24PM 39.1647 -86.3317 188° South 166 191 4,000  Level Indianapolis Center
02:25PM 39.1097 -86.3444 190° South 167 192 4,000  Level Indianapolis Center
02:26PM 39.0631 -86.3536 189° South 168 193 4,000  Level Indianapolis Center
02:27PM 39.0167 -86.3631 189° South 169 194 4,000  Level Indianapolis Center
02:28PM 38.9703 -86.3708 187° South 167 192 4,000  Level Indianapolis Center
02:29PM 38.9247 -86.3803 189° South 166 191 4,000  Level Indianapolis Center
02:30PM 38.8767 -86.3900 189° South 163 188 4,000  Level Indianapolis Center
02:31PM 38.8317 -86.3975 187° South 162 186 4,000  Level Indianapolis Center
02:32PM 38.7858 -86.4067 189° South 165 190 4,000  Level Indianapolis Center
02:33PM 38.7383 -86.4147 188° South 169 194 4,000  Level Indianapolis Center
02:34PM 38.6919 -86.4239 189° South 169 194 4,000  Level Indianapolis Center
02:35PM 38.6356 -86.4350 189° South 169 194 4,000  Level Indianapolis Center
02:36PM 38.5881 -86.4436 188° South 171 197 4,000  Level Indianapolis Center
02:37PM 38.5403 -86.4531 189° South 172 198 4,000  Level Indianapolis Center
02:38PM 38.4928 -86.4619 188° South 172 198 4,000  Level Indianapolis Center
02:39PM 38.4456 -86.4711 189° South 171 197 4,000  Level Indianapolis Center
02:40PM 38.3986 -86.4800 188° South 170 196 4,000  Level Indianapolis Center
02:41PM 38.3525 -86.4881 188° South 168 193 4,000  Level Indianapolis Center
02:42PM 38.3056 -86.4975 189° South 168 193 4,000  Level Indianapolis Center
02:43PM 38.2481 -86.5086 189° South 170 196 4,000  Level Indianapolis Center
02:44PM 38.1997 -86.5181 189° South 173 199 4,000  Level Indianapolis Center
02:45PM 38.1508 -86.5272 188° South 174 200 4,000  Level Indianapolis Center
02:46PM 38.1036 -86.5358 188° South 173 199 4,000  Level Indianapolis Center
02:47PM 38.0553 -86.5444 188° South 173 199 4,000  Level Indianapolis Center
02:48PM 38.0078 -86.5525 188° South 172 198 4,100  Climbing Indianapolis Center
02:49PM 37.9606 -86.5617 189° South 171 197 4,100  Level Indianapolis Center
02:50PM 37.9136 -86.5706 188° South 171 197 4,100  Level Indianapolis Center
02:51PM 37.8667 -86.5800 189° South 170 196 4,100  Level Indianapolis Center
02:52PM 37.8103 -86.5900 188° South 169 194 4,100  Level Indianapolis Center
02:53PM 37.7633 -86.5986 188° South 169 194 4,100 -60 Level Indianapolis Center
02:54PM 37.7169 -86.6067 188° South 169 194 4,000  Descending Indianapolis Center
02:56PM 37.6697 -86.6167 190° South 169 194 4,100  Climbing Indianapolis Center
02:57PM 37.6228 -86.6256 189° South 169 194 4,100 -60 Level Indianapolis Center
02:58PM 37.5775 -86.6331 187° South 165 190 4,000  Descending Indianapolis Center
02:59PM 37.5322 -86.6417 189° South 163 188 4,100  Climbing Indianapolis Center
03:00PM 37.4772 -86.6506 187° South 165 190 4,100  Level Indianapolis Center
03:01PM 37.4308 -86.6619 191° South 168 193 4,100  Level Indianapolis Center
03:02PM 37.3822 -86.6689 186° South 173 199 4,100  Level Indianapolis Center
03:03PM 37.3350 -86.6772 188° South 171 197 4,100  Level Indianapolis Center
03:04PM 37.2881 -86.6872 190° South 170 196 4,100  Level Indianapolis Center
03:05PM 37.2356 -86.6953 187° South 170 196 4,100  Level Indianapolis Center
03:06PM 37.1881 -86.7042 188° South 171 197 4,100  Level Indianapolis Center
03:07PM 37.1406 -86.7133 189° South 171 197 4,100 -60 Level Indianapolis Center
03:08PM 37.0944 -86.7211 188° South 168 193 4,000  Descending Indianapolis Center
03:09PM 37.0478 -86.7311 190° South 167 192 4,100  Climbing Indianapolis Center
03:10PM 37.0000 -86.7397 188° South 171 197 4,100 -60 Level Indianapolis Center
03:11PM 36.9439 -86.7503 189° South 173 199 4,000 -60 Descending Indianapolis Center
03:12PM 36.8950 -86.7600 189° South 174 200 4,000  Level Indianapolis Center
03:13PM 36.8714 -86.7650 190° South 180 207 4,000 60 Level Memphis Center
03:14PM 36.8239 -86.7725 187° South 180 207 4,100 60 Climbing Memphis Center